sensor_id;sensor_type;location;lat;lon;timestamp;pressure;altitude;pressure_sealevel;temperature;humidity
64602;BME280;51013;42.630;23.192;2022-07-29T00:01:43;92642.75;;;17.48;84.79
64602;BME280;51013;42.630;23.192;2022-07-29T00:04:10;92636.72;;;17.54;84.08
64602;BME280;51013;42.630;23.192;2022-07-29T00:06:37;92644.31;;;17.56;84.02
64602;BME280;51013;42.630;23.192;2022-07-29T00:09:05;92640.09;;;17.44;84.27
64602;BME280;51013;42.630;23.192;2022-07-29T00:11:32;92615.03;;;17.38;84.39
64602;BME280;51013;42.630;23.192;2022-07-29T00:14:01;92625.34;;;17.54;83.81
64602;BME280;51013;42.630;23.192;2022-07-29T00:16:28;92577.41;;;17.25;83.74
64602;BME280;51013;42.630;23.192;2022-07-29T00:18:55;92622.69;;;17.57;83.55
64602;BME280;51013;42.630;23.192;2022-07-29T00:21:22;92607.88;;;17.53;83.97
64602;BME280;51013;42.630;23.192;2022-07-29T00:23:49;92615.41;;;17.43;83.93
64602;BME280;51013;42.630;23.192;2022-07-29T00:26:16;92449.88;;;16.27;83.17
64602;BME280;51013;42.630;23.192;2022-07-29T00:28:43;92633.34;;;17.61;83.49
64602;BME280;51013;42.630;23.192;2022-07-29T00:31:12;92638.25;;;17.52;83.78
64602;BME280;51013;42.630;23.192;2022-07-29T00:33:38;92608.53;;;17.32;83.56
64602;BME280;51013;42.630;23.192;2022-07-29T00:36:06;92571.69;;;17.19;83.55
64602;BME280;51013;42.630;23.192;2022-07-29T00:38:31;92591.06;;;17.24;83.29
64602;BME280;51013;42.630;23.192;2022-07-29T00:40:58;92591.44;;;17.26;83.33
64602;BME280;51013;42.630;23.192;2022-07-29T00:43:25;92588.00;;;17.25;83.55
64602;BME280;51013;42.630;23.192;2022-07-29T00:45:52;92602.50;;;17.38;83.38
64602;BME280;51013;42.630;23.192;2022-07-29T00:48:21;92438.03;;;16.13;83.71
64602;BME280;51013;42.630;23.192;2022-07-29T00:50:49;92598.25;;;17.23;83.50
64602;BME280;51013;42.630;23.192;2022-07-29T00:53:16;92586.34;;;16.95;83.20
64602;BME280;51013;42.630;23.192;2022-07-29T00:55:43;92620.34;;;17.38;83.73
64602;BME280;51013;42.630;23.192;2022-07-29T00:58:11;92582.28;;;17.12;83.85
64602;BME280;51013;42.630;23.192;2022-07-29T01:00:39;92607.03;;;17.34;84.04
64602;BME280;51013;42.630;23.192;2022-07-29T01:03:06;92604.41;;;17.38;83.68
64602;BME280;51013;42.630;23.192;2022-07-29T01:05:36;92463.13;;;16.27;84.90
64602;BME280;51013;42.630;23.192;2022-07-29T01:08:04;92546.84;;;16.87;84.36
64602;BME280;51013;42.630;23.192;2022-07-29T01:10:33;92591.44;;;17.22;84.04
64602;BME280;51013;42.630;23.192;2022-07-29T01:13:03;92583.47;;;17.26;83.98
64602;BME280;51013;42.630;23.192;2022-07-29T01:15:33;92588.00;;;17.21;83.87
64602;BME280;51013;42.630;23.192;2022-07-29T01:18:04;92591.03;;;17.20;83.60
64602;BME280;51013;42.630;23.192;2022-07-29T01:20:51;92584.91;;;17.12;83.67
64602;BME280;51013;42.630;23.192;2022-07-29T01:23:44;92574.63;;;17.00;84.15
64602;BME280;51013;42.630;23.192;2022-07-29T01:26:33;92529.41;;;16.82;84.02
64602;BME280;51013;42.630;23.192;2022-07-29T01:29:07;92575.38;;;17.00;84.38
64602;BME280;51013;42.630;23.192;2022-07-29T01:31:43;92589.88;;;17.14;83.72
64602;BME280;51013;42.630;23.192;2022-07-29T01:34:18;92585.69;;;17.09;83.75
64602;BME280;51013;42.630;23.192;2022-07-29T01:36:48;92589.81;;;17.07;84.20
64602;BME280;51013;42.630;23.192;2022-07-29T01:39:19;92522.38;;;16.56;83.97
64602;BME280;51013;42.630;23.192;2022-07-29T01:41:56;92509.50;;;16.51;83.89
64602;BME280;51013;42.630;23.192;2022-07-29T01:44:31;92532.31;;;16.66;83.67
64602;BME280;51013;42.630;23.192;2022-07-29T01:47:05;92584.88;;;17.01;84.18
64602;BME280;51013;42.630;23.192;2022-07-29T01:49:41;92557.75;;;16.74;84.21
64602;BME280;51013;42.630;23.192;2022-07-29T01:52:16;92478.19;;;16.15;84.30
64602;BME280;51013;42.630;23.192;2022-07-29T01:54:51;92581.75;;;16.89;84.27
64602;BME280;51013;42.630;23.192;2022-07-29T01:57:21;92516.66;;;16.50;84.03
64602;BME280;51013;42.630;23.192;2022-07-29T01:59:54;92581.75;;;16.89;83.95
64602;BME280;51013;42.630;23.192;2022-07-29T02:02:23;92526.94;;;16.55;84.18
64602;BME280;51013;42.630;23.192;2022-07-29T02:04:52;92581.00;;;16.92;84.13
64602;BME280;51013;42.630;23.192;2022-07-29T02:07:21;92574.16;;;16.91;84.15
64602;BME280;51013;42.630;23.192;2022-07-29T02:09:50;92504.91;;;16.48;84.33
64602;BME280;51013;42.630;23.192;2022-07-29T02:12:19;92526.97;;;16.59;84.71
64602;BME280;51013;42.630;23.192;2022-07-29T02:14:49;92564.34;;;16.95;83.79
64602;BME280;51013;42.630;23.192;2022-07-29T02:17:21;92559.44;;;17.00;83.99
64602;BME280;51013;42.630;23.192;2022-07-29T02:19:50;92559.81;;;16.99;83.70
64602;BME280;51013;42.630;23.192;2022-07-29T02:22:18;92522.88;;;16.72;83.85
64602;BME280;51013;42.630;23.192;2022-07-29T02:24:47;92549.94;;;16.92;83.79
64602;BME280;51013;42.630;23.192;2022-07-29T02:27:16;92556.00;;;16.96;83.83
64602;BME280;51013;42.630;23.192;2022-07-29T02:29:45;92549.19;;;16.99;83.29
64602;BME280;51013;42.630;23.192;2022-07-29T02:32:13;92506.56;;;16.70;83.62
64602;BME280;51013;42.630;23.192;2022-07-29T02:34:44;92545.78;;;16.98;83.52
64602;BME280;51013;42.630;23.192;2022-07-29T02:37:13;92543.91;;;16.95;83.66
64602;BME280;51013;42.630;23.192;2022-07-29T02:39:43;92476.94;;;16.57;83.74
64602;BME280;51013;42.630;23.192;2022-07-29T02:42:15;92481.88;;;16.62;83.47
64602;BME280;51013;42.630;23.192;2022-07-29T02:44:43;92537.81;;;16.95;84.23
64602;BME280;51013;42.630;23.192;2022-07-29T02:47:17;92467.03;;;16.47;84.80
64602;BME280;51013;42.630;23.192;2022-07-29T02:49:52;92511.13;;;16.70;85.06
64602;BME280;51013;42.630;23.192;2022-07-29T02:52:24;92535.13;;;16.88;85.48
64602;BME280;51013;42.630;23.192;2022-07-29T02:54:55;92539.69;;;16.87;85.41
64602;BME280;51013;42.630;23.192;2022-07-29T02:57:34;92548.78;;;16.90;85.11
64602;BME280;51013;42.630;23.192;2022-07-29T03:00:06;92540.44;;;16.88;85.19
64602;BME280;51013;42.630;23.192;2022-07-29T03:02:36;92471.91;;;16.38;84.82
64602;BME280;51013;42.630;23.192;2022-07-29T03:05:07;92524.81;;;16.79;84.42
64602;BME280;51013;42.630;23.192;2022-07-29T03:07:36;92536.25;;;16.87;84.26
64602;BME280;51013;42.630;23.192;2022-07-29T03:10:07;92493.97;;;16.56;84.13
64602;BME280;51013;42.630;23.192;2022-07-29T03:12:35;92495.88;;;16.56;84.34
64602;BME280;51013;42.630;23.192;2022-07-29T03:15:03;92535.03;;;16.73;84.72
64602;BME280;51013;42.630;23.192;2022-07-29T03:17:31;92459.34;;;16.28;84.47
64602;BME280;51013;42.630;23.192;2022-07-29T03:19:58;92497.75;;;16.52;84.32
64602;BME280;51013;42.630;23.192;2022-07-29T03:22:27;92546.41;;;16.77;84.02
64602;BME280;51013;42.630;23.192;2022-07-29T03:24:54;92549.78;;;16.71;84.66
64602;BME280;51013;42.630;23.192;2022-07-29T03:27:21;92550.94;;;16.73;84.63
64602;BME280;51013;42.630;23.192;2022-07-29T03:29:48;92481.19;;;16.14;84.68
64602;BME280;51013;42.630;23.192;2022-07-29T03:32:15;92505.16;;;16.25;85.44
64602;BME280;51013;42.630;23.192;2022-07-29T03:34:42;92555.75;;;16.57;85.66
64602;BME280;51013;42.630;23.192;2022-07-29T03:37:10;92545.09;;;16.50;85.39
64602;BME280;51013;42.630;23.192;2022-07-29T03:39:41;92562.97;;;16.60;85.65
64602;BME280;51013;42.630;23.192;2022-07-29T03:42:12;92563.31;;;16.58;84.90
64602;BME280;51013;42.630;23.192;2022-07-29T03:44:43;92550.41;;;16.53;84.96
64602;BME280;51013;42.630;23.192;2022-07-29T03:47:13;92567.19;;;16.65;84.86
64602;BME280;51013;42.630;23.192;2022-07-29T03:49:42;92548.53;;;16.54;84.91
64602;BME280;51013;42.630;23.192;2022-07-29T03:52:12;92508.91;;;16.20;84.73
64602;BME280;51013;42.630;23.192;2022-07-29T03:54:40;92561.13;;;16.68;84.90
64602;BME280;51013;42.630;23.192;2022-07-29T03:57:10;92524.88;;;16.31;85.26
64602;BME280;51013;42.630;23.192;2022-07-29T03:59:38;92454.09;;;15.83;85.19
64602;BME280;51013;42.630;23.192;2022-07-29T04:02:08;92557.66;;;16.60;85.44
64602;BME280;51013;42.630;23.192;2022-07-29T04:04:36;92505.16;;;16.25;85.25
64602;BME280;51013;42.630;23.192;2022-07-29T04:07:03;92569.03;;;16.64;85.19
64602;BME280;51013;42.630;23.192;2022-07-29T04:09:30;92561.09;;;16.64;85.36
64602;BME280;51013;42.630;23.192;2022-07-29T04:11:58;92465.56;;;16.01;84.92
64602;BME280;51013;42.630;23.192;2022-07-29T04:14:25;92564.91;;;16.70;85.60
64602;BME280;51013;42.630;23.192;2022-07-29T04:16:52;92508.63;;;16.32;85.41
64602;BME280;51013;42.630;23.192;2022-07-29T04:19:19;92548.22;;;16.66;85.77
64602;BME280;51013;42.630;23.192;2022-07-29T04:21:46;92564.66;;;16.82;85.71
64602;BME280;51013;42.630;23.192;2022-07-29T04:24:13;92562.00;;;16.82;86.11
64602;BME280;51013;42.630;23.192;2022-07-29T04:26:41;92565.44;;;16.87;85.74
64602;BME280;51013;42.630;23.192;2022-07-29T04:29:09;92571.53;;;16.87;85.93
64602;BME280;51013;42.630;23.192;2022-07-29T04:31:37;92574.56;;;16.93;85.88
64602;BME280;51013;42.630;23.192;2022-07-29T04:34:04;92561.56;;;16.80;85.90
64602;BME280;51013;42.630;23.192;2022-07-29T04:36:31;92575.69;;;16.88;86.00
64602;BME280;51013;42.630;23.192;2022-07-29T04:38:57;92585.22;;;16.96;86.75
64602;BME280;51013;42.630;23.192;2022-07-29T04:41:26;92560.50;;;16.85;86.76
64602;BME280;51013;42.630;23.192;2022-07-29T04:43:53;92566.19;;;16.84;87.17
64602;BME280;51013;42.630;23.192;2022-07-29T04:46:21;92587.13;;;17.03;87.38
64602;BME280;51013;42.630;23.192;2022-07-29T04:48:49;92576.91;;;17.05;87.67
64602;BME280;51013;42.630;23.192;2022-07-29T04:51:16;92564.78;;;17.04;87.49
64602;BME280;51013;42.630;23.192;2022-07-29T04:53:43;92545.00;;;16.87;88.11
64602;BME280;51013;42.630;23.192;2022-07-29T04:56:10;92532.88;;;16.90;88.10
64602;BME280;51013;42.630;23.192;2022-07-29T04:58:37;92568.22;;;17.08;88.34
64602;BME280;51013;42.630;23.192;2022-07-29T05:01:04;92515.03;;;16.83;87.46
64602;BME280;51013;42.630;23.192;2022-07-29T05:03:34;92492.94;;;16.72;87.62
64602;BME280;51013;42.630;23.192;2022-07-29T05:06:01;92556.19;;;17.29;88.28
64602;BME280;51013;42.630;23.192;2022-07-29T05:08:27;92524.63;;;17.06;88.46
64602;BME280;51013;42.630;23.192;2022-07-29T05:10:54;92582.84;;;17.57;88.55
64602;BME280;51013;42.630;23.192;2022-07-29T05:13:21;92512.91;;;17.17;88.73
64602;BME280;51013;42.630;23.192;2022-07-29T05:15:48;92482.91;;;17.06;89.23
64602;BME280;51013;42.630;23.192;2022-07-29T05:18:16;92592.03;;;17.81;89.64
64602;BME280;51013;42.630;23.192;2022-07-29T05:20:45;92494.00;;;17.30;89.96
64602;BME280;51013;42.630;23.192;2022-07-29T05:23:11;92567.78;;;17.83;89.37
64602;BME280;51013;42.630;23.192;2022-07-29T05:25:39;92587.59;;;18.11;88.02
64602;BME280;51013;42.630;23.192;2022-07-29T05:28:06;92583.78;;;18.15;88.43
64602;BME280;51013;42.630;23.192;2022-07-29T05:30:33;92503.97;;;17.69;87.69
64602;BME280;51013;42.630;23.192;2022-07-29T05:33:00;92461.44;;;17.54;85.62
64602;BME280;51013;42.630;23.192;2022-07-29T05:35:27;92524.53;;;18.04;85.36
64602;BME280;51013;42.630;23.192;2022-07-29T05:37:56;92475.91;;;17.78;85.35
64602;BME280;51013;42.630;23.192;2022-07-29T05:40:23;92542.41;;;18.29;83.98
64602;BME280;51013;42.630;23.192;2022-07-29T05:42:49;92433.72;;;17.55;82.73
64602;BME280;51013;42.630;23.192;2022-07-29T05:45:17;92583.06;;;18.65;84.99
64602;BME280;51013;42.630;23.192;2022-07-29T05:47:44;92588.75;;;18.71;84.76
64602;BME280;51013;42.630;23.192;2022-07-29T05:50:11;92529.47;;;18.34;83.91
64602;BME280;51013;42.630;23.192;2022-07-29T05:52:38;92399.22;;;17.52;82.37
64602;BME280;51013;42.630;23.192;2022-07-29T05:55:07;92587.63;;;18.93;83.19
64602;BME280;51013;42.630;23.192;2022-07-29T05:57:35;92551.13;;;18.72;82.15
64602;BME280;51013;42.630;23.192;2022-07-29T06:00:03;92564.81;;;18.92;81.98
64602;BME280;51013;42.630;23.192;2022-07-29T06:02:30;92543.16;;;18.87;82.65
64602;BME280;51013;42.630;23.192;2022-07-29T06:04:57;92400.00;;;17.99;81.96
64602;BME280;51013;42.630;23.192;2022-07-29T06:07:24;92595.16;;;19.27;83.80
64602;BME280;51013;42.630;23.192;2022-07-29T06:09:51;92539.34;;;18.98;84.37
64602;BME280;51013;42.630;23.192;2022-07-29T06:12:19;92442.47;;;18.49;85.07
64602;BME280;51013;42.630;23.192;2022-07-29T06:14:46;92595.50;;;19.51;84.93
64602;BME280;51013;42.630;23.192;2022-07-29T06:17:13;92548.78;;;19.28;84.77
64602;BME280;51013;42.630;23.192;2022-07-29T06:19:40;92600.78;;;19.61;85.67
64602;BME280;51013;42.630;23.192;2022-07-29T06:22:06;92570.75;;;19.50;85.68
64602;BME280;51013;42.630;23.192;2022-07-29T06:24:33;92549.47;;;19.47;85.57
64602;BME280;51013;42.630;23.192;2022-07-29T06:27:01;92593.06;;;19.92;84.73
64602;BME280;51013;42.630;23.192;2022-07-29T06:29:29;92600.63;;;20.01;83.28
64602;BME280;51013;42.630;23.192;2022-07-29T06:31:56;92595.28;;;20.05;82.25
64602;BME280;51013;42.630;23.192;2022-07-29T06:34:23;92575.50;;;19.98;80.83
64602;BME280;51013;42.630;23.192;2022-07-29T06:36:51;92582.69;;;20.05;82.15
64602;BME280;51013;42.630;23.192;2022-07-29T06:39:18;92500.34;;;19.48;82.54
64602;BME280;51013;42.630;23.192;2022-07-29T06:41:46;92596.63;;;20.31;81.93
64602;BME280;51013;42.630;23.192;2022-07-29T06:44:13;92555.97;;;20.16;81.52
64602;BME280;51013;42.630;23.192;2022-07-29T06:46:42;92554.41;;;20.22;81.64
64602;BME280;51013;42.630;23.192;2022-07-29T06:49:09;92524.03;;;20.05;80.47
64602;BME280;51013;42.630;23.192;2022-07-29T06:51:36;92460.56;;;19.86;78.97
64602;BME280;51013;42.630;23.192;2022-07-29T06:54:03;92536.72;;;20.42;79.37
64602;BME280;51013;42.630;23.192;2022-07-29T06:56:31;92511.25;;;20.34;78.11
64602;BME280;51013;42.630;23.192;2022-07-29T06:58:58;92501.69;;;20.37;77.87
64602;BME280;51013;42.630;23.192;2022-07-29T07:01:25;92593.03;;;21.04;78.56
64602;BME280;51013;42.630;23.192;2022-07-29T07:03:53;92540.72;;;20.72;78.04
64602;BME280;51013;42.630;23.192;2022-07-29T07:06:20;92594.06;;;21.17;76.93
64602;BME280;51013;42.630;23.192;2022-07-29T07:08:47;92493.94;;;20.53;77.73
64602;BME280;51013;42.630;23.192;2022-07-29T07:11:14;92578.75;;;21.25;76.92
64602;BME280;51013;42.630;23.192;2022-07-29T07:13:41;92374.44;;;19.96;74.65
64602;BME280;51013;42.630;23.192;2022-07-29T07:16:08;92513.19;;;21.17;76.17
64602;BME280;51013;42.630;23.192;2022-07-29T07:18:35;92570.41;;;21.57;73.56
64602;BME280;51013;42.630;23.192;2022-07-29T07:21:03;92613.22;;;21.85;73.84
64602;BME280;51013;42.630;23.192;2022-07-29T07:23:31;92569.41;;;21.75;74.99
64602;BME280;51013;42.630;23.192;2022-07-29T07:25:58;92408.78;;;20.70;74.08
64602;BME280;51013;42.630;23.192;2022-07-29T07:28:25;92598.72;;;22.13;73.32
64602;BME280;51013;42.630;23.192;2022-07-29T07:30:52;92596.28;;;22.22;74.92
64602;BME280;51013;42.630;23.192;2022-07-29T07:33:19;92456.84;;;21.35;72.28
64602;BME280;51013;42.630;23.192;2022-07-29T07:35:49;92464.78;;;21.42;72.18
64602;BME280;51013;42.630;23.192;2022-07-29T07:38:17;92550.63;;;22.09;73.20
64602;BME280;51013;42.630;23.192;2022-07-29T07:40:44;92546.03;;;22.10;72.45
64602;BME280;51013;42.630;23.192;2022-07-29T07:43:11;92501.50;;;21.69;72.66
64602;BME280;51013;42.630;23.192;2022-07-29T07:45:38;92597.84;;;22.50;72.19
64602;BME280;51013;42.630;23.192;2022-07-29T07:48:05;92457.59;;;21.70;71.80
64602;BME280;51013;42.630;23.192;2022-07-29T07:50:35;92601.72;;;22.73;72.66
64602;BME280;51013;42.630;23.192;2022-07-29T07:53:02;92592.06;;;22.79;72.18
64602;BME280;51013;42.630;23.192;2022-07-29T07:55:31;92583.38;;;22.71;70.64
64602;BME280;51013;42.630;23.192;2022-07-29T07:57:58;92558.69;;;22.60;70.69
64602;BME280;51013;42.630;23.192;2022-07-29T08:00:26;92428.13;;;21.73;71.07
64602;BME280;51013;42.630;23.192;2022-07-29T08:02:53;92479.34;;;22.23;71.41
64602;BME280;51013;42.630;23.192;2022-07-29T08:05:20;92537.56;;;22.66;72.14
64602;BME280;51013;42.630;23.192;2022-07-29T08:07:47;92560.84;;;22.92;71.53
64602;BME280;51013;42.630;23.192;2022-07-29T08:10:18;92566.72;;;23.07;71.06
64602;BME280;51013;42.630;23.192;2022-07-29T08:13:07;92575.34;;;23.18;71.18
64602;BME280;51013;42.630;23.192;2022-07-29T08:15:36;92588.09;;;23.34;70.92
64602;BME280;51013;42.630;23.192;2022-07-29T08:18:03;92441.41;;;22.31;71.05
64602;BME280;51013;42.630;23.192;2022-07-29T08:20:31;92476.19;;;22.55;69.70
64602;BME280;51013;42.630;23.192;2022-07-29T08:23:01;92554.13;;;23.28;72.33
64602;BME280;51013;42.630;23.192;2022-07-29T08:25:30;92448.81;;;22.67;68.62
64602;BME280;51013;42.630;23.192;2022-07-29T08:27:58;92595.03;;;23.72;70.01
64602;BME280;51013;42.630;23.192;2022-07-29T08:30:26;92594.59;;;23.77;68.96
64602;BME280;51013;42.630;23.192;2022-07-29T08:32:53;92577.84;;;23.69;68.20
64602;BME280;51013;42.630;23.192;2022-07-29T08:35:21;92595.81;;;23.92;68.98
64602;BME280;51013;42.630;23.192;2022-07-29T08:37:48;92557.59;;;23.68;68.62
64602;BME280;51013;42.630;23.192;2022-07-29T08:40:15;92596.34;;;24.04;66.44
64602;BME280;51013;42.630;23.192;2022-07-29T08:42:42;92593.88;;;24.13;65.71
64602;BME280;51013;42.630;23.192;2022-07-29T08:45:09;92549.03;;;23.93;65.71
64602;BME280;51013;42.630;23.192;2022-07-29T08:47:38;92599.16;;;24.33;65.90
64602;BME280;51013;42.630;23.192;2022-07-29T08:50:06;92584.75;;;24.43;66.13
64602;BME280;51013;42.630;23.192;2022-07-29T08:52:36;92444.06;;;23.55;65.17
64602;BME280;51013;42.630;23.192;2022-07-29T08:55:05;92597.06;;;24.61;63.25
64602;BME280;51013;42.630;23.192;2022-07-29T08:57:34;92495.75;;;24.12;64.01
64602;BME280;51013;42.630;23.192;2022-07-29T09:00:04;92557.28;;;24.55;62.93
64602;BME280;51013;42.630;23.192;2022-07-29T09:02:35;92580.94;;;24.77;63.36
64602;BME280;51013;42.630;23.192;2022-07-29T09:05:05;92508.09;;;24.26;64.22
64602;BME280;51013;42.630;23.192;2022-07-29T09:07:32;92592.19;;;24.88;61.93
64602;BME280;51013;42.630;23.192;2022-07-29T09:10:00;92577.41;;;24.96;63.17
64602;BME280;51013;42.630;23.192;2022-07-29T09:12:30;92581.09;;;25.03;63.17
64602;BME280;51013;42.630;23.192;2022-07-29T09:14:57;92466.56;;;24.30;61.21
64602;BME280;51013;42.630;23.192;2022-07-29T09:17:40;92546.41;;;24.92;63.53
64602;BME280;51013;42.630;23.192;2022-07-29T09:20:10;92533.09;;;24.88;61.20
64602;BME280;51013;42.630;23.192;2022-07-29T09:22:38;92437.38;;;24.32;62.15
64602;BME280;51013;42.630;23.192;2022-07-29T09:25:05;92580.13;;;25.42;61.55
64602;BME280;51013;42.630;23.192;2022-07-29T09:27:33;92442.28;;;24.67;60.46
64602;BME280;51013;42.630;23.192;2022-07-29T09:30:03;92583.41;;;25.63;58.77
64602;BME280;51013;42.630;23.192;2022-07-29T09:32:31;92578.41;;;25.77;60.95
64602;BME280;51013;42.630;23.192;2022-07-29T09:35:17;92588.81;;;25.92;59.47
64602;BME280;51013;42.630;23.192;2022-07-29T09:37:44;92504.63;;;25.49;57.78
64602;BME280;51013;42.630;23.192;2022-07-29T09:40:13;92544.84;;;25.82;56.92
64602;BME280;51013;42.630;23.192;2022-07-29T09:42:41;92590.25;;;26.22;55.81
64602;BME280;51013;42.630;23.192;2022-07-29T09:45:09;92488.94;;;25.61;58.46
64602;BME280;51013;42.630;23.192;2022-07-29T09:47:45;92579.69;;;26.41;55.46
64602;BME280;51013;42.630;23.192;2022-07-29T09:50:15;92537.16;;;26.23;56.93
64602;BME280;51013;42.630;23.192;2022-07-29T09:52:44;92576.66;;;26.51;56.02
64602;BME280;51013;42.630;23.192;2022-07-29T09:55:12;92576.25;;;26.66;55.97
64602;BME280;51013;42.630;23.192;2022-07-29T09:57:40;92447.66;;;25.93;51.67
64602;BME280;51013;42.630;23.192;2022-07-29T10:00:09;92459.41;;;25.99;53.76
64602;BME280;51013;42.630;23.192;2022-07-29T10:02:39;92422.38;;;25.90;54.17
64602;BME280;51013;42.630;23.192;2022-07-29T10:05:18;92522.38;;;26.78;53.53
64602;BME280;51013;42.630;23.192;2022-07-29T10:07:47;92422.69;;;26.18;53.66
64602;BME280;51013;42.630;23.192;2022-07-29T10:10:22;92545.53;;;27.11;52.45
64602;BME280;51013;42.630;23.192;2022-07-29T10:12:51;92541.28;;;27.35;55.95
64602;BME280;51013;42.630;23.192;2022-07-29T10:15:21;92526.47;;;27.40;52.09
64602;BME280;51013;42.630;23.192;2022-07-29T10:17:48;92512.41;;;27.45;52.81
64602;BME280;51013;42.630;23.192;2022-07-29T10:20:15;92396.78;;;26.81;50.79
64602;BME280;51013;42.630;23.192;2022-07-29T10:22:44;92468.94;;;27.43;51.25
64602;BME280;51013;42.630;23.192;2022-07-29T10:25:12;92542.66;;;28.06;50.60
64602;BME280;51013;42.630;23.192;2022-07-29T10:27:40;92378.06;;;27.09;51.64
64602;BME280;51013;42.630;23.192;2022-07-29T10:30:10;92543.47;;;28.25;50.11
64602;BME280;51013;42.630;23.192;2022-07-29T10:33:02;92511.31;;;28.09;47.25
64602;BME280;51013;42.630;23.192;2022-07-29T10:35:44;92523.84;;;28.34;52.89
64602;BME280;51013;42.630;23.192;2022-07-29T10:38:41;92418.75;;;27.68;48.77
64602;BME280;51013;42.630;23.192;2022-07-29T10:41:23;92520.28;;;28.46;46.81
64602;BME280;51013;42.630;23.192;2022-07-29T10:43:59;92403.16;;;27.72;47.93
64602;BME280;51013;42.630;23.192;2022-07-29T10:46:27;92376.84;;;27.54;47.93
64602;BME280;51013;42.630;23.192;2022-07-29T10:49:11;92419.16;;;27.97;47.54
64602;BME280;51013;42.630;23.192;2022-07-29T10:51:59;92523.44;;;28.94;47.66
64602;BME280;51013;42.630;23.192;2022-07-29T10:54:40;92518.34;;;29.06;47.10
64602;BME280;51013;42.630;23.192;2022-07-29T10:57:15;92501.81;;;29.13;45.08
64602;BME280;51013;42.630;23.192;2022-07-29T10:59:44;92390.91;;;28.48;46.02
64602;BME280;51013;42.630;23.192;2022-07-29T11:02:41;92510.69;;;29.50;45.99
64602;BME280;51013;42.630;23.192;2022-07-29T11:05:11;92430.75;;;28.94;44.51
64602;BME280;51013;42.630;23.192;2022-07-29T11:07:40;92517.41;;;29.64;42.54
64602;BME280;51013;42.630;23.192;2022-07-29T11:10:27;92381.34;;;28.84;44.53
64602;BME280;51013;42.630;23.192;2022-07-29T11:12:54;92505.47;;;29.99;45.65
64602;BME280;51013;42.630;23.192;2022-07-29T11:15:22;92514.91;;;30.22;45.76
64602;BME280;51013;42.630;23.192;2022-07-29T11:18:08;92380.81;;;29.50;44.61
64602;BME280;51013;42.630;23.192;2022-07-29T11:20:40;92488.34;;;30.35;46.16
64602;BME280;51013;42.630;23.192;2022-07-29T11:23:22;92390.28;;;29.88;45.03
64602;BME280;51013;42.630;23.192;2022-07-29T11:26:16;92483.72;;;30.84;45.59
64602;BME280;51013;42.630;23.192;2022-07-29T11:28:59;92373.63;;;30.14;43.04
64602;BME280;51013;42.630;23.192;2022-07-29T11:31:38;92296.22;;;29.74;40.17
64602;BME280;51013;42.630;23.192;2022-07-29T11:34:24;92358.59;;;30.37;38.96
64602;BME280;51013;42.630;23.192;2022-07-29T11:37:17;92503.31;;;31.51;40.43
64602;BME280;51013;42.630;23.192;2022-07-29T11:39:46;92501.72;;;31.59;40.14
64602;BME280;51013;42.630;23.192;2022-07-29T11:42:46;92490.56;;;31.87;38.80
64602;BME280;51013;42.630;23.192;2022-07-29T11:45:16;92347.53;;;30.89;39.29
64602;BME280;51013;42.630;23.192;2022-07-29T11:47:51;92442.72;;;31.74;40.47
64602;BME280;51013;42.630;23.192;2022-07-29T11:50:28;92352.88;;;31.13;39.51
64602;BME280;51013;42.630;23.192;2022-07-29T11:52:56;92485.25;;;32.07;38.98
64602;BME280;51013;42.630;23.192;2022-07-29T11:55:24;92375.41;;;31.34;37.33
64602;BME280;51013;42.630;23.192;2022-07-29T11:57:54;92481.47;;;32.34;37.12
64602;BME280;51013;42.630;23.192;2022-07-29T12:00:30;92444.34;;;32.31;39.33
64602;BME280;51013;42.630;23.192;2022-07-29T12:02:58;92481.81;;;32.78;37.64
64602;BME280;51013;42.630;23.192;2022-07-29T12:05:35;92449.16;;;32.78;39.69
64602;BME280;51013;42.630;23.192;2022-07-29T12:08:15;92481.34;;;33.20;36.92
64602;BME280;51013;42.630;23.192;2022-07-29T12:10:45;92474.59;;;33.36;37.17
64602;BME280;51013;42.630;23.192;2022-07-29T12:13:16;92450.97;;;33.53;36.08
64602;BME280;51013;42.630;23.192;2022-07-29T12:15:51;92381.19;;;33.24;35.62
64602;BME280;51013;42.630;23.192;2022-07-29T12:18:19;92361.59;;;32.73;33.14
64602;BME280;51013;42.630;23.192;2022-07-29T12:20:47;92485.09;;;33.49;33.33
64602;BME280;51013;42.630;23.192;2022-07-29T12:23:15;92357.38;;;32.93;35.19
64602;BME280;51013;42.630;23.192;2022-07-29T12:25:43;92336.94;;;33.03;35.48
64602;BME280;51013;42.630;23.192;2022-07-29T12:28:14;92479.84;;;34.24;35.09
64602;BME280;51013;42.630;23.192;2022-07-29T12:30:46;92351.16;;;33.71;34.90
64602;BME280;51013;42.630;23.192;2022-07-29T12:33:20;92340.19;;;33.65;36.04
64602;BME280;51013;42.630;23.192;2022-07-29T12:35:49;92330.09;;;33.71;33.44
64602;BME280;51013;42.630;23.192;2022-07-29T12:38:17;92469.38;;;35.03;33.42
64602;BME280;51013;42.630;23.192;2022-07-29T12:40:47;92369.31;;;34.17;33.03
64602;BME280;51013;42.630;23.192;2022-07-29T12:43:17;92449.22;;;34.89;34.70
64602;BME280;51013;42.630;23.192;2022-07-29T12:45:47;92332.97;;;34.43;32.29
64602;BME280;51013;42.630;23.192;2022-07-29T12:48:15;92468.81;;;35.64;31.32
64602;BME280;51013;42.630;23.192;2022-07-29T12:50:57;92436.41;;;35.06;32.09
64602;BME280;51013;42.630;23.192;2022-07-29T12:53:24;92358.31;;;34.55;32.54
64602;BME280;51013;42.630;23.192;2022-07-29T12:55:53;92457.22;;;34.98;32.96
64602;BME280;51013;42.630;23.192;2022-07-29T12:58:30;92331.66;;;33.84;33.37
64602;BME280;51013;42.630;23.192;2022-07-29T13:01:02;92318.03;;;33.46;33.13
64602;BME280;51013;42.630;23.192;2022-07-29T13:03:40;92342.03;;;33.48;33.32
64602;BME280;51013;42.630;23.192;2022-07-29T13:06:27;92374.13;;;33.64;35.72